Time;durP1;ratioP1;P1;durP2;ratioP2;P2;SDS_P1;SDS_P2;PMS_P1;PMS_P2;Temp;Humidity;BMP_temperature;BMP_pressure;BME280_temperature;BME280_humidity;BME280_pressure;Samples;Min_cycle;Max_cycle;Signal;HPM_P1;HPM_P2
2022/03/04 00:01:50;;;;;;;1999.90;999.90;;;;;;;-2.19;50.29;101910.22;5015791;27;97076;-69
2022/03/04 00:04:18;;;;;;;1999.90;999.90;;;;;;;-2.19;50.28;101915.44;5016547;28;97634;-67
2022/03/04 00:06:46;;;;;;;1999.90;999.90;;;;;;;-2.20;51.17;101921.44;5014910;28;99976;-65
2022/03/04 00:09:14;;;;;;;1999.90;999.90;;;;;;;-2.21;51.00;101912.69;5018868;27;98307;-66
2022/03/04 00:11:42;;;;;;;1999.90;999.90;;;;;;;-2.21;50.85;101915.28;5014635;28;98566;-67
2022/03/04 00:14:10;;;;;;;1999.90;999.90;;;;;;;-2.21;50.70;101914.38;5035923;27;97506;-67
2022/03/04 00:16:38;;;;;;;1999.90;999.90;;;;;;;-2.22;51.00;101917.78;5019341;27;98042;-69
2022/03/04 00:19:08;;;;;;;1999.90;999.90;;;;;;;-2.22;50.25;101918.69;5016422;27;98078;-68
2022/03/04 00:21:37;;;;;;;1999.90;999.90;;;;;;;-2.20;50.36;101913.59;5015662;28;97708;-66
2022/03/04 00:24:05;;;;;;;1999.90;999.90;;;;;;;-2.21;50.81;101911.75;5018097;28;97970;-68
2022/03/04 00:26:33;;;;;;;1999.90;999.90;;;;;;;-2.20;50.26;101909.28;5014124;28;98101;-67
2022/03/04 00:29:01;;;;;;;1999.90;999.90;;;;;;;-2.18;50.42;101907.75;5016430;27;98034;-68
2022/03/04 00:31:28;;;;;;;1999.90;999.90;;;;;;;-2.18;50.89;101910.34;5016016;28;97691;-69
2022/03/04 00:33:56;;;;;;;1999.90;999.90;;;;;;;-2.15;50.51;101912.34;5017902;27;97440;-68
2022/03/04 00:36:28;;;;;;;1999.90;999.90;;;;;;;-2.17;50.30;101903.47;5019546;27;98761;-67
2022/03/04 00:38:57;;;;;;;1999.90;999.90;;;;;;;-2.16;50.87;101908.81;5017665;27;98207;-67
2022/03/04 00:41:25;;;;;;;1999.90;999.90;;;;;;;-2.15;50.65;101907.16;5017386;27;97085;-68
2022/03/04 00:43:53;;;;;;;1999.90;999.90;;;;;;;-2.18;50.16;101897.31;5015627;28;98453;-66
2022/03/04 00:46:20;;;;;;;1999.90;999.90;;;;;;;-2.27;50.76;101901.69;5015695;28;98746;-68
2022/03/04 00:48:48;;;;;;;1999.90;999.90;;;;;;;-2.30;50.92;101905.72;5015742;27;97781;-68
2022/03/04 00:51:16;;;;;;;1999.90;999.90;;;;;;;-2.29;51.22;101910.19;5011359;27;97483;-68
2022/03/04 00:53:45;;;;;;;1999.90;999.90;;;;;;;-2.33;51.04;101901.16;5028434;27;97786;-68
2022/03/04 00:56:13;;;;;;;1999.90;999.90;;;;;;;-2.35;50.59;101899.19;5010955;28;97983;-68
2022/03/04 00:58:41;;;;;;;1999.90;999.90;;;;;;;-2.39;51.10;101911.03;5023446;27;98719;-68
2022/03/04 01:01:10;;;;;;;1999.90;999.90;;;;;;;-2.42;51.06;101918.59;5004154;28;98621;-70
2022/03/04 01:03:38;;;;;;;1999.90;999.90;;;;;;;-2.44;50.78;101917.53;5012528;28;99353;-68
2022/03/04 01:06:07;;;;;;;1999.90;999.90;;;;;;;-2.48;51.62;101906.66;5008216;27;99473;-68
2022/03/04 01:08:35;;;;;;;1999.90;999.90;;;;;;;-2.51;50.97;101896.88;5022177;27;99411;-69
2022/03/04 01:11:05;;;;;;;1999.90;999.90;;;;;;;-2.53;50.81;101908.88;5008974;28;98312;-69
2022/03/04 01:13:33;;;;;;;1999.90;999.90;;;;;;;-2.52;51.17;101912.38;5005116;28;98395;-69
2022/03/04 01:16:01;;;;;;;1999.90;999.90;;;;;;;-2.51;50.91;101911.63;5005509;28;98939;-68
2022/03/04 01:18:29;;;;;;;1999.90;999.90;;;;;;;-2.48;50.73;101917.09;5010056;27;98620;-68
2022/03/04 01:20:58;;;;;;;1999.90;999.90;;;;;;;-2.48;50.91;101910.19;5010694;28;97258;-69
2022/03/04 01:23:26;;;;;;;1999.90;999.90;;;;;;;-2.46;50.92;101913.88;5005552;28;96930;-69
2022/03/04 01:25:55;;;;;;;1999.90;999.90;;;;;;;-2.46;50.93;101916.47;5011432;28;99360;-69
2022/03/04 01:28:24;;;;;;;1999.90;999.90;;;;;;;-2.47;50.92;101922.44;5008536;27;98799;-68
2022/03/04 01:30:52;;;;;;;1999.90;999.90;;;;;;;-2.47;50.88;101914.63;5009831;28;97999;-70
2022/03/04 01:33:20;;;;;;;1999.90;999.90;;;;;;;-2.47;51.62;101926.75;5013036;28;97541;-70
2022/03/04 01:35:48;;;;;;;1999.90;999.90;;;;;;;-2.50;51.38;101929.06;5005434;27;100440;-68
2022/03/04 01:38:15;;;;;;;1999.90;999.90;;;;;;;-2.50;50.99;101924.78;5010150;28;97828;-70
2022/03/04 01:40:44;;;;;;;1999.90;999.90;;;;;;;-2.52;51.58;101931.53;5008724;27;97635;-67
2022/03/04 01:43:11;;;;;;;1999.90;999.90;;;;;;;-2.51;51.75;101928.13;5010442;27;96783;-67
2022/03/04 01:45:40;;;;;;;1999.90;999.90;;;;;;;-2.50;51.60;101932.59;5010025;27;98665;-68
2022/03/04 01:48:08;;;;;;;1999.90;999.90;;;;;;;-2.47;51.31;101929.38;5015226;28;98409;-68
2022/03/04 01:50:36;;;;;;;1999.90;999.90;;;;;;;-2.45;50.92;101928.72;5013842;28;97984;-70
2022/03/04 01:53:04;;;;;;;1999.90;999.90;;;;;;;-2.43;51.18;101929.78;4997789;28;97677;-69
2022/03/04 01:55:32;;;;;;;1999.90;999.90;;;;;;;-2.41;50.85;101920.41;5011802;27;97888;-68
2022/03/04 01:58:00;;;;;;;1999.90;999.90;;;;;;;-2.40;51.37;101917.00;5012045;28;100632;-68
2022/03/04 02:00:27;;;;;;;1999.90;999.90;;;;;;;-2.39;51.09;101908.44;5013404;28;99141;-69
2022/03/04 02:02:59;;;;;;;1999.90;999.90;;;;;;;-2.37;50.98;101908.56;5015427;27;97801;-70
2022/03/04 02:05:27;;;;;;;1999.90;999.90;;;;;;;-2.36;51.12;101898.25;4996571;28;99280;-68
2022/03/04 02:07:55;;;;;;;1999.90;999.90;;;;;;;-2.35;50.92;101910.53;5010584;28;98490;-69
2022/03/04 02:10:23;;;;;;;1999.90;999.90;;;;;;;-2.35;51.42;101902.72;5011821;28;96961;-68
2022/03/04 02:12:50;;;;;;;1999.90;999.90;;;;;;;-2.35;51.17;101899.19;5012217;28;97680;-69
2022/03/04 02:15:18;;;;;;;1999.90;999.90;;;;;;;-2.33;51.43;101897.63;5010149;27;98138;-68
2022/03/04 02:17:46;;;;;;;1999.90;999.90;;;;;;;-2.35;51.56;101900.13;5013434;28;97613;-68
2022/03/04 02:20:15;;;;;;;1999.90;999.90;;;;;;;-2.35;51.51;101897.50;5016567;28;97610;-68
2022/03/04 02:22:44;;;;;;;1999.90;999.90;;;;;;;-2.34;51.41;101891.50;5014942;28;97590;-70
2022/03/04 02:25:11;;;;;;;1999.90;999.90;;;;;;;-2.34;50.88;101890.56;5012989;27;98667;-68
2022/03/04 02:27:39;;;;;;;1999.90;999.90;;;;;;;-2.36;51.12;101893.06;5009784;28;98878;-69
2022/03/04 02:30:07;;;;;;;1999.90;999.90;;;;;;;-2.36;51.16;101882.63;5009430;28;97860;-69
2022/03/04 02:32:35;;;;;;;1999.90;999.90;;;;;;;-2.36;51.60;101879.13;5010078;28;97336;-68
2022/03/04 02:35:03;;;;;;;1999.90;999.90;;;;;;;-2.35;51.04;101874.06;5013213;27;98210;-68
2022/03/04 02:37:31;;;;;;;1999.90;999.90;;;;;;;-2.32;50.79;101881.22;5012700;27;97723;-68
2022/03/04 02:40:00;;;;;;;1999.90;999.90;;;;;;;-2.30;50.65;101883.19;4996486;28;97859;-66
2022/03/04 02:42:28;;;;;;;1999.90;999.90;;;;;;;-2.29;51.69;101874.56;5010190;28;97842;-69
2022/03/04 02:44:56;;;;;;;1999.90;999.90;;;;;;;-2.33;51.25;101859.47;5013244;28;99919;-66
2022/03/04 02:47:23;;;;;;;1999.90;999.90;;;;;;;-2.35;51.57;101874.06;5009405;28;98045;-68
2022/03/04 02:49:51;;;;;;;1999.90;999.90;;;;;;;-2.34;51.65;101870.66;5010162;28;97853;-66
2022/03/04 02:52:19;;;;;;;1999.90;999.90;;;;;;;-2.33;51.29;101872.50;5011218;27;98751;-67
2022/03/04 02:54:47;;;;;;;1999.90;999.90;;;;;;;-2.33;51.33;101864.69;5011645;27;99048;-66
2022/03/04 02:57:16;;;;;;;1999.90;999.90;;;;;;;-2.30;50.82;101870.16;5011509;27;97894;-67
2022/03/04 02:59:43;;;;;;;1999.90;999.90;;;;;;;-2.31;51.08;101863.09;5010697;28;97638;-67
2022/03/04 03:02:11;;;;;;;1999.90;999.90;;;;;;;-2.31;51.13;101859.59;5026197;27;97905;-67
2022/03/04 03:04:41;;;;;;;1999.90;999.90;;;;;;;-2.28;51.28;101854.66;5007237;27;99845;-67
2022/03/04 03:07:09;;;;;;;1999.90;999.90;;;;;;;-2.27;51.64;101853.88;5011038;28;98150;-68
2022/03/04 03:09:36;;;;;;;1999.90;999.90;;;;;;;-2.28;50.98;101850.34;5011486;28;97621;-67
2022/03/04 03:12:05;;;;;;;1999.90;999.90;;;;;;;-2.26;51.26;101859.22;5010303;27;97193;-68
2022/03/04 03:14:34;;;;;;;1999.90;999.90;;;;;;;-2.27;50.93;101862.59;5011389;27;97920;-68
2022/03/04 03:17:02;;;;;;;1999.90;999.90;;;;;;;-2.27;51.49;101857.38;5010016;28;98683;-67
2022/03/04 03:19:30;;;;;;;1999.90;999.90;;;;;;;-2.25;50.95;101865.34;5009465;28;97923;-67
2022/03/04 03:21:58;;;;;;;1999.90;999.90;;;;;;;-2.26;51.06;101873.94;5012199;27;98017;-67
2022/03/04 03:24:26;;;;;;;1999.90;999.90;;;;;;;-2.27;51.22;101872.13;5012442;27;97739;-66
2022/03/04 03:26:54;;;;;;;1999.90;999.90;;;;;;;-2.27;51.17;101875.63;5010119;27;98242;-68
2022/03/04 03:29:21;;;;;;;1999.90;999.90;;;;;;;-2.25;51.48;101870.53;5011840;27;97161;-68
2022/03/04 03:31:50;;;;;;;1999.90;999.90;;;;;;;-2.23;51.26;101875.13;5006627;27;97975;-68
2022/03/04 03:34:18;;;;;;;1999.90;999.90;;;;;;;-2.22;51.29;101883.88;5005923;27;100409;-68
2022/03/04 03:36:46;;;;;;;1999.90;999.90;;;;;;;-2.22;51.74;101878.66;5008464;27;97442;-68
2022/03/04 03:39:14;;;;;;;1999.90;999.90;;;;;;;-2.25;51.16;101871.47;5007645;27;98655;-69
2022/03/04 03:41:42;;;;;;;1999.90;999.90;;;;;;;-2.24;51.23;101872.41;5011909;28;98046;-68
2022/03/04 03:44:10;;;;;;;1999.90;999.90;;;;;;;-2.22;51.18;101886.50;4989101;27;100117;-67
2022/03/04 03:46:37;;;;;;;1999.90;999.90;;;;;;;-2.22;50.97;101878.66;5011314;27;97283;-68
2022/03/04 03:49:06;;;;;;;1999.90;999.90;;;;;;;-2.20;51.25;101890.16;5013687;27;97858;-69
2022/03/04 03:51:34;;;;;;;1999.90;999.90;;;;;;;-2.21;51.75;101894.44;5014488;28;97233;-69
2022/03/04 03:54:02;;;;;;;1999.90;999.90;;;;;;;-2.18;51.41;101889.50;5014758;27;98342;-69
2022/03/04 03:56:30;;;;;;;1999.90;999.90;;;;;;;-2.18;51.28;101894.69;5012220;28;100343;-68
2022/03/04 03:58:58;;;;;;;1999.90;999.90;;;;;;;-2.17;51.31;101891.38;5012622;27;97897;-68
2022/03/04 04:01:25;;;;;;;1999.90;999.90;;;;;;;-2.16;51.32;101898.41;5011165;27;99108;-68
2022/03/04 04:03:53;;;;;;;1999.90;999.90;;;;;;;-2.15;51.38;101899.31;5013217;28;97883;-68
2022/03/04 04:06:22;;;;;;;1999.90;999.90;;;;;;;-2.14;51.72;101898.53;5010700;27;98725;-69
2022/03/04 04:08:50;;;;;;;1999.90;999.90;;;;;;;-2.13;51.80;101903.91;5009322;28;98094;-68
2022/03/04 04:11:18;;;;;;;1999.90;999.90;;;;;;;-2.12;51.60;101897.91;5008887;27;97252;-68
2022/03/04 04:13:46;;;;;;;1999.90;999.90;;;;;;;-2.10;51.66;101901.56;5010545;28;100791;-66
2022/03/04 04:16:14;;;;;;;1999.90;999.90;;;;;;;-2.08;51.42;101902.63;5011658;27;98055;-66
2022/03/04 04:18:42;;;;;;;1999.90;999.90;;;;;;;-2.06;51.18;101902.75;5011134;28;97128;-68
2022/03/04 04:21:10;;;;;;;1999.90;999.90;;;;;;;-2.06;50.96;101903.66;5009739;28;97673;-68
2022/03/04 04:23:39;;;;;;;1999.90;999.90;;;;;;;-2.03;51.65;101906.53;5012038;28;97318;-68
2022/03/04 04:26:08;;;;;;;1999.90;999.90;;;;;;;-2.01;51.28;101914.50;5008685;27;101341;-68
2022/03/04 04:28:36;;;;;;;1999.90;999.90;;;;;;;-2.03;51.70;101905.63;5008158;28;98483;-68
2022/03/04 04:31:04;;;;;;;1999.90;999.90;;;;;;;-2.03;51.72;101910.84;5010808;28;98078;-68
2022/03/04 04:33:32;;;;;;;1999.90;999.90;;;;;;;-1.92;51.14;101907.47;5009368;28;97681;-67
2022/03/04 04:36:00;;;;;;;1999.90;999.90;;;;;;;-1.91;51.25;101912.81;5011517;27;100604;-68
2022/03/04 04:38:28;;;;;;;1999.90;999.90;;;;;;;-1.90;50.69;101917.28;5010137;28;97290;-68
2022/03/04 04:40:57;;;;;;;1999.90;999.90;;;;;;;-1.91;51.25;101911.94;5011050;28;97700;-67
2022/03/04 04:43:25;;;;;;;1999.90;999.90;;;;;;;-1.90;50.68;101914.69;5009639;27;100819;-68
2022/03/04 04:45:53;;;;;;;1999.90;999.90;;;;;;;-1.89;51.26;101916.50;5025221;27;99352;-69
2022/03/04 04:48:21;;;;;;;1999.90;999.90;;;;;;;-1.90;51.16;101917.28;5007176;28;98102;-68
2022/03/04 04:50:49;;;;;;;1999.90;999.90;;;;;;;-1.59;50.15;101906.91;5003349;28;98499;-68
2022/03/04 04:53:17;;;;;;;1999.90;999.90;;;;;;;-1.79;51.42;101906.88;5010101;27;98654;-68
2022/03/04 04:55:45;;;;;;;1999.90;999.90;;;;;;;-1.86;51.03;101903.75;5010114;27;100296;-68
2022/03/04 04:58:14;;;;;;;1999.90;999.90;;;;;;;-1.87;50.88;101908.84;5007519;28;98476;-68
2022/03/04 05:00:42;;;;;;;1999.90;999.90;;;;;;;-1.54;51.10;101901.31;5007804;27;98416;-69
2022/03/04 05:03:10;;;;;;;1999.90;999.90;;;;;;;-1.75;51.17;101906.38;5006550;27;97758;-70
2022/03/04 05:05:38;;;;;;;1999.90;999.90;;;;;;;-1.80;51.39;101908.59;5004933;27;98770;-67
2022/03/04 05:08:05;;;;;;;1999.90;999.90;;;;;;;-1.82;51.86;101911.03;5010030;28;96917;-69
2022/03/04 05:10:33;;;;;;;1999.90;999.90;;;;;;;-1.83;51.48;101915.22;5010062;28;97423;-68
2022/03/04 05:13:02;;;;;;;1999.90;999.90;;;;;;;-1.83;51.57;101915.22;5010144;28;98586;-68
2022/03/04 05:15:31;;;;;;;1999.90;999.90;;;;;;;-1.82;51.30;101911.81;5005689;27;99107;-69
2022/03/04 05:17:58;;;;;;;1999.90;999.90;;;;;;;-1.81;51.37;101925.00;5011151;27;97810;-68
2022/03/04 05:20:26;;;;;;;1999.90;999.90;;;;;;;-1.79;51.09;101922.53;5005253;28;96992;-66
2022/03/04 05:22:54;;;;;;;1999.90;999.90;;;;;;;-1.79;51.52;101923.44;5010544;28;97693;-68
2022/03/04 05:25:22;;;;;;;1999.90;999.90;;;;;;;-1.79;51.61;101917.31;5009927;27;97634;-70
2022/03/04 05:27:50;;;;;;;1999.90;999.90;;;;;;;-1.48;50.53;101919.22;5004753;28;98400;-68
2022/03/04 05:30:18;;;;;;;1999.90;999.90;;;;;;;-1.65;51.36;101922.06;5010865;28;97704;-70
2022/03/04 05:32:47;;;;;;;1999.90;999.90;;;;;;;-1.69;51.60;101917.34;5011531;28;98040;-66
2022/03/04 05:35:15;;;;;;;1999.90;999.90;;;;;;;-1.72;51.85;101915.38;5005301;28;98483;-68
2022/03/04 05:37:43;;;;;;;1999.90;999.90;;;;;;;-1.72;51.66;101917.09;5009337;28;98071;-68
2022/03/04 05:40:12;;;;;;;1999.90;999.90;;;;;;;-1.71;51.58;101929.34;5008989;28;97700;-69
2022/03/04 05:42:39;;;;;;;1999.90;999.90;;;;;;;-1.73;51.22;101929.22;5011329;27;100017;-68
2022/03/04 05:45:07;;;;;;;1999.90;999.90;;;;;;;-1.77;52.05;101927.09;5011892;28;99435;-68
2022/03/04 05:47:35;;;;;;;1999.90;999.90;;;;;;;-1.78;51.44;101934.81;5009114;28;98842;-68
2022/03/04 05:50:05;;;;;;;1999.90;999.90;;;;;;;-1.84;51.34;101927.34;4990812;28;98444;-68
2022/03/04 05:52:33;;;;;;;1999.90;999.90;;;;;;;-1.88;51.96;101931.38;5009277;28;101595;-69
2022/03/04 05:55:01;;;;;;;1999.90;999.90;;;;;;;-1.91;51.70;101941.53;5009713;28;97542;-68
2022/03/04 05:57:28;;;;;;;1999.90;999.90;;;;;;;-1.91;51.46;101941.53;5007068;28;97787;-70
2022/03/04 05:59:57;;;;;;;1999.90;999.90;;;;;;;-1.91;52.05;101936.31;5011026;27;97992;-68
2022/03/04 06:02:26;;;;;;;1999.90;999.90;;;;;;;-1.91;52.00;101949.34;5005962;27;99344;-69
2022/03/04 06:04:54;;;;;;;1999.90;999.90;;;;;;;-1.93;52.33;101950.00;5004789;27;99265;-68
2022/03/04 06:07:23;;;;;;;1999.90;999.90;;;;;;;-1.58;52.15;101950.53;5003712;27;98060;-69
2022/03/04 06:09:51;;;;;;;1999.90;999.90;;;;;;;-1.76;51.74;101951.50;5010186;28;98551;-68
2022/03/04 06:12:19;;;;;;;1999.90;999.90;;;;;;;-1.83;51.90;101956.97;5024567;27;99308;-66
2022/03/04 06:14:47;;;;;;;1999.90;999.90;;;;;;;-1.88;52.41;101954.84;5007609;27;99475;-69
2022/03/04 06:17:16;;;;;;;1999.90;999.90;;;;;;;-1.91;52.10;101962.38;5009796;27;96753;-68
2022/03/04 06:19:44;;;;;;;1999.90;999.90;;;;;;;-1.91;52.11;101957.16;5007891;28;97325;-68
2022/03/04 06:22:12;;;;;;;1999.90;999.90;;;;;;;-1.89;52.68;101946.91;5006703;28;98390;-69
2022/03/04 06:24:41;;;;;;;1999.90;999.90;;;;;;;-1.90;52.26;101951.19;5007369;27;98226;-68
2022/03/04 06:27:09;;;;;;;1999.90;999.90;;;;;;;-1.91;52.43;101965.00;5008516;28;97669;-68
2022/03/04 06:29:36;;;;;;;1999.90;999.90;;;;;;;-1.92;52.03;101954.44;5006225;28;97319;-70
2022/03/04 06:32:05;;;;;;;1999.90;999.90;;;;;;;-1.92;52.41;101959.66;5009625;28;99728;-68
2022/03/04 06:34:32;;;;;;;1999.90;999.90;;;;;;;-1.92;51.84;101968.41;5011172;27;99319;-70
2022/03/04 06:37:00;;;;;;;1999.90;999.90;;;;;;;-1.93;52.50;101960.44;5009752;28;97903;-68
2022/03/04 06:39:28;;;;;;;1999.90;999.90;;;;;;;-1.93;52.01;101963.97;5011154;28;98548;-69
2022/03/04 06:41:57;;;;;;;1999.90;999.90;;;;;;;-1.92;52.72;101967.47;5011142;28;98091;-69
2022/03/04 06:44:25;;;;;;;1999.90;999.90;;;;;;;-1.94;52.43;101975.16;5018110;27;99166;-68
2022/03/04 06:46:53;;;;;;;1999.90;999.90;;;;;;;-1.95;52.15;101978.56;5013253;28;98631;-69
2022/03/04 06:49:21;;;;;;;1999.90;999.90;;;;;;;-1.94;52.10;101974.25;5017292;28;97636;-69
2022/03/04 06:51:49;;;;;;;1999.90;999.90;;;;;;;-1.95;52.59;101978.56;5025602;28;98831;-68
2022/03/04 06:54:16;;;;;;;1999.90;999.90;;;;;;;-1.94;51.89;101979.47;5013008;28;99046;-68
2022/03/04 06:56:44;;;;;;;1999.90;999.90;;;;;;;-1.98;51.81;101980.88;5016376;28;98346;-69
2022/03/04 06:59:13;;;;;;;1999.90;999.90;;;;;;;-2.05;52.62;101981.09;5017123;28;97609;-69
2022/03/04 07:01:41;;;;;;;1999.90;999.90;;;;;;;-2.08;52.17;101986.06;5016010;28;99715;-68
2022/03/04 07:04:09;;;;;;;1999.90;999.90;;;;;;;-2.11;52.15;101983.16;5014587;27;98338;-68
2022/03/04 07:06:36;;;;;;;1999.90;999.90;;;;;;;-2.11;52.79;101990.97;5013498;28;98049;-67
2022/03/04 07:09:05;;;;;;;1999.90;999.90;;;;;;;-2.17;52.66;102000.88;5016997;27;97669;-68
2022/03/04 07:11:32;;;;;;;1999.90;999.90;;;;;;;-2.23;52.82;102000.28;5015016;28;100653;-68
2022/03/04 07:14:00;;;;;;;1999.90;999.90;;;;;;;-2.29;52.69;102004.03;5015240;28;97755;-69
2022/03/04 07:16:29;;;;;;;1999.90;999.90;;;;;;;-2.30;52.47;102003.09;5015161;28;98646;-68
2022/03/04 07:18:57;;;;;;;1999.90;999.90;;;;;;;-2.31;52.38;102016.88;5013735;28;97534;-69
2022/03/04 07:21:25;;;;;;;1999.90;999.90;;;;;;;-2.32;52.44;102012.47;5016790;28;97609;-68
2022/03/04 07:23:57;;;;;;;1999.90;999.90;;;;;;;-2.31;52.54;102016.00;5015326;28;98868;-67
2022/03/04 07:26:24;;;;;;;1999.90;999.90;;;;;;;-2.30;53.21;102016.13;5012246;27;97642;-68
2022/03/04 07:28:52;;;;;;;1999.90;999.90;;;;;;;-2.27;53.11;102015.50;5013462;27;96993;-68
2022/03/04 07:31:21;;;;;;;1999.90;999.90;;;;;;;-2.29;52.75;102019.66;5015403;27;97383;-69
2022/03/04 07:33:50;;;;;;;1999.90;999.90;;;;;;;-2.29;52.83;102020.56;5014609;27;97921;-69
2022/03/04 07:36:18;;;;;;;1999.90;999.90;;;;;;;-2.27;52.53;102029.44;5011663;28;97220;-67
2022/03/04 07:38:45;;;;;;;1999.90;999.90;;;;;;;-2.28;52.84;102022.41;5009261;28;96856;-67
2022/03/04 07:41:13;;;;;;;1999.90;999.90;;;;;;;-2.28;53.01;102027.63;5011702;28;98773;-68
2022/03/04 07:43:41;;;;;;;1999.90;999.90;;;;;;;-2.31;53.07;102027.31;5014118;27;98365;-68
2022/03/04 07:46:13;;;;;;;1999.90;999.90;;;;;;;-2.32;52.27;102024.56;5017448;27;97456;-66
2022/03/04 07:48:41;;;;;;;1999.90;999.90;;;;;;;-2.32;53.03;102035.91;5014271;28;97780;-67
2022/03/04 07:51:10;;;;;;;1999.90;999.90;;;;;;;-2.31;52.84;102029.91;5014418;27;97624;-68
2022/03/04 07:53:38;;;;;;;1999.90;999.90;;;;;;;-2.30;52.57;102044.81;5014193;27;98928;-68
2022/03/04 07:56:05;;;;;;;1999.90;999.90;;;;;;;-2.29;52.98;102038.78;5013957;28;97851;-67
2022/03/04 07:58:33;;;;;;;1999.90;999.90;;;;;;;-2.29;52.93;102045.72;5011371;28;97222;-67
2022/03/04 08:01:02;;;;;;;1999.90;999.90;;;;;;;-2.28;52.55;102032.84;5012672;27;99443;-67
2022/03/04 08:03:49;;;;;;;1999.90;999.90;;;;;;;-2.34;52.54;102031.31;5011916;28;97505;-68
2022/03/04 08:06:19;;;;;;;1999.90;999.90;;;;;;;-2.33;52.14;102033.19;5010600;27;98150;-68
2022/03/04 08:08:47;;;;;;;1999.90;999.90;;;;;;;-2.33;52.17;102041.94;5011161;28;97861;-67
2022/03/04 08:11:15;;;;;;;1999.90;999.90;;;;;;;-2.35;52.32;102051.28;5009098;27;98067;-67
2022/03/04 08:13:42;;;;;;;1999.90;999.90;;;;;;;-2.35;52.60;102046.06;5011645;28;98713;-66
2022/03/04 08:16:11;;;;;;;1999.90;999.90;;;;;;;-2.36;52.89;102046.84;5012179;28;98528;-68
2022/03/04 08:18:39;;;;;;;1999.90;999.90;;;;;;;-2.37;52.72;102050.22;5010319;28;96813;-68
2022/03/04 08:21:08;;;;;;;1999.90;999.90;;;;;;;-2.37;52.30;102055.44;5010566;28;99929;-67
2022/03/04 08:23:37;;;;;;;1999.90;999.90;;;;;;;-2.39;53.04;102054.38;5010246;28;98788;-66
2022/03/04 08:26:05;;;;;;;1999.90;999.90;;;;;;;-2.37;52.48;102055.44;5007665;27;98498;-68
2022/03/04 08:28:33;;;;;;;1999.90;999.90;;;;;;;-2.32;52.89;102055.84;5005400;27;98349;-68
2022/03/04 08:31:03;;;;;;;1999.90;999.90;;;;;;;-2.30;52.55;102059.53;5006549;28;97842;-69
2022/03/04 08:33:31;;;;;;;1999.90;999.90;;;;;;;-2.31;52.02;102055.97;5005155;27;98696;-68
2022/03/04 08:35:59;;;;;;;1999.90;999.90;;;;;;;-2.31;52.20;102048.16;5007819;27;97459;-69
2022/03/04 08:38:27;;;;;;;1999.90;999.90;;;;;;;-2.30;52.53;102052.63;5006522;27;97880;-68
2022/03/04 08:40:57;;;;;;;1999.90;999.90;;;;;;;-2.27;52.89;102055.50;5008826;28;97788;-69
2022/03/04 08:43:24;;;;;;;1999.90;999.90;;;;;;;-2.24;52.83;102058.41;5002455;27;98927;-69
2022/03/04 08:45:52;;;;;;;1999.90;999.90;;;;;;;-2.21;51.80;102062.97;5003502;28;98264;-70
2022/03/04 08:48:23;;;;;;;1999.90;999.90;;;;;;;-2.17;52.43;102060.84;5010975;28;97058;-69
2022/03/04 08:50:50;;;;;;;1999.90;999.90;;;;;;;-2.14;52.54;102054.97;5009859;28;98196;-70
2022/03/04 08:53:18;;;;;;;1999.90;999.90;;;;;;;-2.12;52.32;102064.78;5011259;27;98612;-69
2022/03/04 08:55:46;;;;;;;1999.90;999.90;;;;;;;-2.09;51.74;102062.44;5010876;27;97534;-69
2022/03/04 08:58:15;;;;;;;1999.90;999.90;;;;;;;-2.12;51.70;102056.94;5008056;28;97674;-68
2022/03/04 09:00:43;;;;;;;1999.90;999.90;;;;;;;-2.13;52.05;102070.78;5009957;27;98742;-69
2022/03/04 09:03:11;;;;;;;1999.90;999.90;;;;;;;-2.15;52.30;102061.91;5011207;28;97566;-68
2022/03/04 09:05:39;;;;;;;1999.90;999.90;;;;;;;-2.12;52.08;102067.38;5010359;27;97614;-69
2022/03/04 09:08:07;;;;;;;1999.90;999.90;;;;;;;-2.08;51.84;102066.91;5012362;28;97983;-68
2022/03/04 09:10:35;;;;;;;1999.90;999.90;;;;;;;-2.05;51.64;102067.16;5028176;27;97705;-68
2022/03/04 09:13:04;;;;;;;1999.90;999.90;;;;;;;-2.02;51.65;102062.25;5012123;28;97469;-69
2022/03/04 09:15:33;;;;;;;1999.90;999.90;;;;;;;-2.00;51.97;102068.50;5010656;28;99347;-68
2022/03/04 09:18:01;;;;;;;1999.90;999.90;;;;;;;-1.97;52.21;102068.78;5011568;28;98152;-68
2022/03/04 09:20:34;;;;;;;1999.90;999.90;;;;;;;-1.95;52.20;102062.03;5010241;28;99313;-69
2022/03/04 09:23:03;;;;;;;1999.90;999.90;;;;;;;-1.92;52.07;102062.31;5010590;28;98229;-69
2022/03/04 09:25:30;;;;;;;1999.90;999.90;;;;;;;-1.89;51.80;102053.84;5010053;27;97437;-68
2022/03/04 09:27:58;;;;;;;1999.90;999.90;;;;;;;-1.84;51.66;102055.16;5010863;28;97417;-69
2022/03/04 09:30:26;;;;;;;1999.90;999.90;;;;;;;-1.82;51.39;102064.94;5011180;27;98790;-67
2022/03/04 09:32:56;;;;;;;1999.90;999.90;;;;;;;-1.77;51.65;102060.16;5011191;28;97709;-68
2022/03/04 09:35:24;;;;;;;1999.90;999.90;;;;;;;-1.71;51.45;102072.84;5010322;28;98074;-68
2022/03/04 09:37:52;;;;;;;1999.90;999.90;;;;;;;-1.66;51.25;102066.34;5012338;28;97431;-67
2022/03/04 09:40:20;;;;;;;1999.90;999.90;;;;;;;-1.63;51.82;102064.03;5011819;28;98485;-68
2022/03/04 09:42:47;;;;;;;1999.90;999.90;;;;;;;-1.61;51.52;102070.28;5008442;28;98254;-68
2022/03/04 09:45:15;;;;;;;1999.90;999.90;;;;;;;-1.53;51.02;102069.28;5010463;27;96950;-69
2022/03/04 09:47:43;;;;;;;1999.90;999.90;;;;;;;-1.47;51.06;102067.22;5011479;27;98232;-68
2022/03/04 09:50:13;;;;;;;1999.90;999.90;;;;;;;-1.43;51.16;102061.50;5010970;28;98908;-69
2022/03/04 09:52:41;;;;;;;1999.90;999.90;;;;;;;-1.39;50.71;102053.16;5011800;28;98930;-68
2022/03/04 09:55:10;;;;;;;1999.90;999.90;;;;;;;-1.37;50.98;102047.28;5011706;27;97523;-69
2022/03/04 09:57:39;;;;;;;1999.90;999.90;;;;;;;-1.36;51.36;102049.09;5012170;27;97043;-68
2022/03/04 10:00:11;;;;;;;1999.90;999.90;;;;;;;-1.34;51.57;102047.56;5009036;28;97585;-69
2022/03/04 10:02:39;;;;;;;1999.90;999.90;;;;;;;-1.31;50.86;102057.38;5009221;28;98575;-69
2022/03/04 10:05:08;;;;;;;1999.90;999.90;;;;;;;-1.23;51.20;102053.75;5010810;27;98492;-68
2022/03/04 10:07:42;;;;;;;1999.90;999.90;;;;;;;-1.17;51.01;102042.13;5015406;28;97759;-67
2022/03/04 10:10:12;;;;;;;1999.90;999.90;;;;;;;-1.10;50.82;102046.19;5015583;27;99660;-69
2022/03/04 10:12:48;;;;;;;1999.90;999.90;;;;;;;-1.08;50.50;102044.63;5012826;28;99325;-67
2022/03/04 10:15:16;;;;;;;1999.90;999.90;;;;;;;-1.03;50.27;102045.97;5012160;27;97058;-69
2022/03/04 10:17:58;;;;;;;1999.90;999.90;;;;;;;-0.99;50.46;102053.25;5014316;28;97746;-70
2022/03/04 10:20:34;;;;;;;1999.90;999.90;;;;;;;-0.92;50.76;102045.16;5013138;28;98100;-69
2022/03/04 10:23:20;;;;;;;1999.90;999.90;;;;;;;-0.89;50.38;102048.06;5012306;28;99207;-67
2022/03/04 10:25:50;;;;;;;1999.90;999.90;;;;;;;-0.86;50.23;102037.88;5013567;28;96747;-67
2022/03/04 10:28:18;;;;;;;1999.90;999.90;;;;;;;-0.81;50.48;102033.94;5014557;28;97079;-68
2022/03/04 10:30:48;;;;;;;1999.90;999.90;;;;;;;-0.75;50.18;102039.72;5013591;28;98990;-67
2022/03/04 10:33:17;;;;;;;1999.90;999.90;;;;;;;-0.69;50.27;102039.31;5011573;27;97047;-68
2022/03/04 10:35:46;;;;;;;1999.90;999.90;;;;;;;-0.64;50.29;102044.16;5011587;27;97518;-68
2022/03/04 10:38:25;;;;;;;1999.90;999.90;;;;;;;-0.65;50.57;102052.81;4994462;28;97170;-68
2022/03/04 10:40:54;;;;;;;1999.90;999.90;;;;;;;-0.62;50.21;102042.59;5012684;27;97817;-69
2022/03/04 10:43:30;;;;;;;1999.90;999.90;;;;;;;-0.60;50.39;102051.50;5013742;28;97679;-69
2022/03/04 10:46:01;;;;;;;1999.90;999.90;;;;;;;-0.56;50.23;102043.13;5012011;27;97772;-69
2022/03/04 10:48:30;;;;;;;1999.90;999.90;;;;;;;-0.52;50.11;102045.19;5010798;28;97918;-69
2022/03/04 10:51:03;;;;;;;1999.90;999.90;;;;;;;-0.51;49.79;102059.19;5011706;28;99947;-68
2022/03/04 10:53:34;;;;;;;1999.90;999.90;;;;;;;-0.52;49.94;102050.44;5010720;28;98245;-68